Klimmen, Netherlands
Current Conditions -  °F | °C
As of 2:25 AM on Tuesday 25 Nov 2014 (Local Time) from EHBK Reporting Station
Clear Clear  
Wind Chill: 30°   Ceiling: Unl
Heat Index: 34°   Visibility: 6mi
Dew Point: 34°   Wind: 5mph
Humidity: 100%   Direction: 80°E
Pressure: 30.3"   Gusts: NA
Location:  50.88°N, 5.88°E
Report Text: EHBK 250125Z AUTO 08004KT 9999 NCD 01/01 Q1026
Loading
Personal Weather Stations






























Interactive Weather Map New forecast layout! Learn more

10-Day Weather Forecast

Advertisements
Track Severe Weather on mobile